Latest Coastal Weather Observations for Geraldton Airport

IDW60701

Issued at 10:42 pm WST Sunday 24 July 2016 (issued every 10 minutes, with the page automatically refreshed every 10 minutes)

About coastal observations | Map of coastal stations | Coastal observations for WA | Marine services | Other Formats
Station Details ID: 008315 Name: GERALDTON AIRPORT Lat: -28.80 Lon: 114.70 Height: 29.7 m
Data from the previous 72 hours. | See also: Recent months at Geraldton Airport
Date/Time
WST
Temp
°C
Wind Pressure Rain since
9am
mm
Weather Cloud Vis
km
Sea
Height
m
Swell
Dir  Spd
kts
Gust
kts
hPa Trend Height
m
Period
s
Dir
24/10:30pm 6.3 SSE 9 10 1025.7 - 0.0 - - 10 - - - -
24/10:00pm 6.5 SE 7 8 1025.7 - 0.0 - - 10 - - - -
24/09:30pm 7.1 SSE 9 9 1025.7 - 0.0 - - 10 - - - -
24/09:00pm 7.3 SSE 8 8 1025.8 - 0.0 - - 10 - - - -
24/08:30pm 7.8 SSE 8 8 1025.5 - 0.0 - - 10 - - - -
24/08:00pm 8.0 SSE 7 8 1025.5 - 0.0 - - 10 - - - -
24/07:30pm 8.5 SE 8 9 1025.1 - 0.0 - - 10 - - - -
24/07:00pm 9.3 SSE 7 7 1024.8 - 0.0 - - 10 - - - -
24/06:30pm 10.0 SSE 7 8 1024.5 - 0.0 - - 10 - - - -
24/06:00pm 11.2 SSE 8 8 1024.3 - 0.0 - - 10 - - - -
24/05:30pm 12.9 SSE 8 9 1023.9 - 0.0 - - 10 - - - -
24/05:00pm 14.3 SE 9 12 1023.8 - 0.0 - Partly cloudy 10 - - - -
24/04:30pm 15.4 SE 11 14 1023.5 - 0.0 - Partly cloudy 10 - - - -
24/04:00pm 15.9 ESE 7 11 1023.2 - 0.0 - Partly cloudy 10 - - - -
24/03:30pm 15.4 SE 9 12 1023.1 - 0.0 - Cloudy 10 - - - -
24/03:00pm 15.9 SE 8 13 1023.4 - 0.0 - Partly cloudy 10 - - - -
24/02:30pm 15.8 E 7 10 1023.5 - 0.0 - Partly cloudy 10 - - - -
24/02:00pm 16.4 E 9 11 1023.7 - 0.0 - - 10 - - - -
24/01:30pm 14.7 E 10 13 1024.0 - 0.0 - Partly cloudy 10 - - - -
24/01:00pm 15.5 ENE 9 13 1024.6 - 0.0 - Partly cloudy 10 - - - -
24/12:30pm 15.3 ENE 9 14 1025.1 - 0.0 - Partly cloudy 10 - - - -
24/12:08pm 14.4 ENE 10 13 1025.6 - 0.0 - Cloudy 10 - - - -
24/12:00pm 14.0 ENE 10 13 1025.9 - 0.0 - Mostly cloudy 10 - - - -
24/11:30am 12.9 ENE 8 11 1026.1 - 0.0 - Cloudy 10 - - - -
24/11:00am 12.3 ENE 9 13 1026.6 - 0.0 - Partly cloudy 10 - - - -
24/10:53am 12.4 ENE 9 13 1026.6 - 0.0 - Partly cloudy 10 - - - -
24/10:30am 12.2 E 11 15 1026.7 - 0.0 - - 10 - - - -
24/10:00am 11.9 E 7 10 1026.6 - 0.0 - - 10 - - - -
24/09:30am 10.9 E 6 8 1026.3 - 0.0 - - 10 - - - -
24/09:00am 10.5 ESE 7 11 1026.2 - 0.0 - - 10 - - - -
24/08:30am 10.0 E 8 11 1026.0 - 0.0 - - 10 - - - -
24/08:00am 9.3 E 11 15 1025.7 - 0.0 - - 10 - - - -
24/07:30am 8.4 E 9 13 1025.5 - 0.0 - - 10 - - - -
24/07:00am 7.6 ESE 8 9 1025.3 - 0.0 - - 10 - - - -
24/06:30am 7.2 ESE 8 9 1025.1 - 0.0 - Partly cloudy 10 - - - -
24/06:00am 7.2 ESE 6 7 1024.9 - 0.0 - Mostly cloudy 10 - - - -
24/05:30am 8.0 ESE 7 8 1024.5 - 0.0 - Partly cloudy 10 - - - -
24/05:00am 8.0 ESE 7 9 1024.3 - 0.0 - Cloudy 10 - - - -
24/04:30am 7.7 SE 6 9 1024.4 - 0.0 - Partly cloudy 10 - - - -
24/04:00am 6.8 E 6 7 1024.2 - 0.0 - - 10 - - - -
24/03:30am 6.5 ESE 3 4 1024.4 - 0.0 - - 10 - - - -
24/03:00am 6.2 E 3 4 1024.6 - 0.0 - Mostly clear 10 - - - -
24/02:30am 6.0 SE 4 5 1024.5 - 0.0 - Partly cloudy 10 - - - -
24/02:00am 5.9 SE 5 6 1024.7 - 0.0 - Partly cloudy 10 - - - -
24/01:30am 5.9 ESE 2 3 1024.6 - 0.0 - Partly cloudy 10 - - - -
24/01:00am 6.1 NE 6 7 1024.6 - 0.0 - Partly cloudy 10 - - - -
24/12:30am 6.4 NE 7 7 1024.5 - 0.0 - - 10 - - - -
24/12:00am 6.2 NE 5 6 1024.6 - 0.0 - - 10 - - - -
 
Date/Time
WST
Temp
°C
Wind Pressure Rain since
9am
mm
Weather Cloud Vis
km
Sea
Height
m
Swell
Dir  Spd
kts
Gust
kts
hPa Trend Height
m
Period
s
Dir
23/11:30pm 6.4 NNE 5 6 1024.6 - 0.0 - - 10 - - - -
23/11:00pm 6.7 NE 4 5 1024.8 - 0.0 - - 10 - - - -
23/10:30pm 7.6 CALM 0 0 1024.6 - 0.0 - - 10 - - - -
23/10:00pm 8.0 SE 2 3 1024.8 - 0.0 - - 10 - - - -
23/09:30pm 7.7 ESE 4 5 1024.6 - 0.0 - - 10 - - - -
23/09:00pm 8.0 SE 4 5 1024.5 - 0.0 - - 10 - - - -
23/08:30pm 8.2 SE 6 7 1024.3 - 0.0 - - 10 - - - -
23/08:00pm 9.2 SE 7 7 1024.2 - 0.0 - - 10 - - - -
23/07:30pm 10.0 SE 5 6 1024.1 - 0.0 - Partly cloudy 10 - - - -
23/07:00pm 9.4 E 5 5 1023.8 - 0.0 - - 10 - - - -
23/06:30pm 11.2 SSE 5 6 1023.7 - 0.0 - - 10 - - - -
23/06:00pm 11.7 SSE 6 6 1023.6 - 0.0 - - 10 - - - -
23/05:30pm 13.1 SSE 7 8 1023.3 - 0.0 - - 10 - - - -
23/05:00pm 14.5 SSE 7 9 1023.2 - 0.0 - Partly cloudy 10 - - - -
23/04:30pm 15.7 SSE 8 12 1023.2 - 0.0 - Partly cloudy 10 - - - -
23/04:00pm 15.5 S 9 12 1023.2 - 0.0 - Cloudy 10 - - - -
23/03:30pm 15.7 SSE 7 9 1023.2 - 0.0 - Cloudy 10 - - - -
23/03:00pm 15.8 SSE 9 12 1023.2 - 0.0 - Mostly cloudy 10 - - - -
23/02:30pm 15.9 S 11 14 1023.1 - 0.0 - Cloudy 10 - - - -
23/02:00pm 16.6 SSE 9 14 1023.0 - 0.0 - Partly cloudy 10 - - - -
23/01:30pm 16.5 SSE 6 9 1023.1 - 0.0 - Cloudy 10 - - - -
23/01:00pm 16.7 SE 6 8 1023.3 - 0.0 - Partly cloudy 10 - - - -
23/12:30pm 16.3 E 7 9 1023.6 - 0.0 - Partly cloudy 10 - - - -
23/12:00pm 16.1 E 7 11 1024.1 - 0.0 - - 10 - - - -
23/11:30am 15.7 E 7 10 1024.2 - 0.0 - - 10 - - - -
23/11:00am 15.6 E 7 9 1024.5 - 0.0 - - 10 - - - -
23/10:30am 14.8 ENE 7 9 1024.8 - 0.0 - Partly cloudy 10 - - - -
23/10:00am 13.6 NE 7 8 1024.7 - 0.0 - Partly cloudy 10 - - - -
23/09:30am 12.8 ENE 4 6 1024.6 - 0.0 - Partly cloudy 10 - - - -
23/09:00am 11.8 ENE 7 9 1024.4 - 0.0 - Mostly cloudy 10 - - - -
23/08:30am 10.5 NNE 9 12 1024.3 - 0.0 - Cloudy 10 - - - -
23/08:00am 10.5 NNE 4 6 1024.2 - 0.0 - Cloudy 10 - - - -
23/07:30am 10.1 NNE 1 5 1023.7 - 0.0 - Cloudy 10 - - - -
23/07:00am 9.6 NE 7 9 1023.1 - 0.0 - Cloudy 10 - - - -
23/06:30am 8.8 NNE 7 8 1023.1 - 0.0 - Partly cloudy 10 - - - -
23/06:00am 9.2 NE 8 11 1023.1 - 0.0 - Mostly cloudy 10 - - - -
23/05:30am 10.1 NNE 4 6 1022.8 - 0.0 - Cloudy 10 - - - -
23/05:00am 10.6 E 6 8 1022.4 - 0.0 - Cloudy 10 - - - -
23/04:30am 11.5 ENE 8 11 1022.7 - 0.0 - Cloudy 10 - - - -
23/04:00am 11.8 E 9 12 1022.9 - 0.0 - Cloudy 10 - - - -
23/03:30am 11.7 E 7 9 1023.0 - 0.0 - Cloudy 10 - - - -
23/03:00am 12.0 ESE 8 13 1023.5 - 0.0 - Cloudy 10 - - - -
23/02:30am 12.0 E 7 11 1023.1 - 0.0 - Cloudy 10 - - - -
23/02:00am 11.8 E 4 7 1023.0 - 0.0 - Cloudy 10 - - - -
23/01:30am 11.8 E 5 6 1023.0 - 0.0 - Cloudy 10 - - - -
23/01:00am 12.3 ENE 8 9 1023.2 - 0.0 - Cloudy 10 - - - -
23/12:30am 12.3 E 6 8 1023.1 - 0.0 - Cloudy 10 - - - -
23/12:00am 12.3 ESE 7 10 1023.3 - 0.0 - Cloudy 10 - - - -
 
Date/Time
WST
Temp
°C
Wind Pressure Rain since
9am
mm
Weather Cloud Vis
km
Sea
Height
m
Swell
Dir  Spd
kts
Gust
kts
hPa Trend Height
m
Period
s
Dir
22/11:30pm 12.7 E 9 11 1023.1 - 0.0 - Cloudy 10 - - - -
22/11:00pm 12.6 E 10 12 1023.3 - 0.0 - Cloudy 10 - - - -
22/10:30pm 12.6 E 10 11 1023.2 - 0.0 - Cloudy 10 - - - -
22/10:00pm 12.0 ESE 7 8 1023.1 - 0.0 - Cloudy 10 - - - -
22/09:30pm 12.4 SE 5 7 1022.9 - 0.0 - Cloudy 10 - - - -
22/09:00pm 12.1 E 9 10 1022.9 - 0.0 - Mostly cloudy 10 - - - -
22/08:30pm 12.2 E 5 6 1022.9 - 0.0 - Cloudy 10 - - - -
22/08:00pm 12.2 SSE 2 3 1022.8 - 0.0 - Cloudy 10 - - - -
22/07:30pm 11.7 ENE 5 6 1022.5 - 0.0 - Partly cloudy 10 - - - -
22/07:00pm 13.1 ESE 3 4 1022.3 - 0.0 - Partly cloudy 10 - - - -
22/06:30pm 13.6 ESE 4 4 1022.2 - 0.0 - Cloudy 10 - - - -
22/06:00pm 13.8 ESE 5 5 1022.0 - 0.0 - Cloudy 10 - - - -
22/05:30pm 14.6 ESE 5 5 1021.8 - 0.0 - Cloudy 10 - - - -
22/05:00pm 15.2 ESE 5 6 1021.8 - 0.0 - Partly cloudy 10 - - - -
22/04:30pm 15.9 SSE 5 7 1021.6 - 0.0 - Cloudy 10 - - - -
22/04:00pm 16.3 SSE 7 9 1021.7 - 0.0 - Cloudy 10 - - - -
22/03:30pm 16.5 SE 7 9 1021.6 - 0.0 - Cloudy 10 - - - -
22/03:00pm 16.3 SE 10 13 1021.8 - 0.0 - Mostly cloudy 10 - - - -
22/02:30pm 16.8 SE 9 10 1021.8 - 0.0 - Mostly clear 10 - - - -
22/02:00pm 17.2 SSE 7 11 1021.8 - 0.0 - Mostly clear 10 - - - -
22/01:30pm 16.1 SE 7 10 1022.0 - 0.0 - Partly cloudy 10 - - - -
22/01:00pm 16.5 SSE 11 13 1022.3 - 0.0 - Partly cloudy 10 - - - -
22/12:30pm 16.9 SE 10 15 1022.6 - 0.0 - Partly cloudy 10 - - - -
22/12:00pm 15.7 ESE 9 11 1023.1 - 0.0 - Cloudy 10 - - - -
22/11:30am 15.9 E 7 10 1023.3 - 0.0 - Mostly clear 10 - - - -
22/11:00am 15.6 ESE 9 12 1023.4 - 0.0 - Mostly clear 10 - - - -
22/10:30am 15.3 ESE 11 15 1023.5 - 0.0 - Mostly clear 10 - - - -
22/10:00am 15.1 ESE 11 13 1023.4 - 0.0 - Mostly clear 10 - - - -
22/09:30am 14.4 NE 6 7 1023.2 - 0.0 - Mostly clear 10 - - - -
22/09:00am 12.5 NNE 6 8 1022.8 - 3.8 - Mostly clear 10 - - - -
22/08:30am 11.1 NE 5 8 1022.3 - 3.8 - Partly cloudy 10 - - - -
22/08:00am 11.0 NE 5 8 1021.9 - 3.8 - Mostly clear 10 - - - -
22/07:30am 10.9 NNE 7 9 1021.4 - 3.8 - Partly cloudy 10 - - - -
22/07:00am 11.0 NE 7 8 1021.1 - 3.6 - Partly cloudy 10 - - - -
22/06:54am 11.0 NNE 6 8 1021.0 - 3.6 - Partly cloudy 10 - - - -
22/06:34am 10.2 N 6 9 1021.3 - 3.0 - Partly cloudy 3 - - - -
22/06:30am 9.9 NNE 7 9 1020.9 - 1.8 - Partly cloudy 10 - - - -
22/06:00am 10.6 NNE 7 8 1020.8 - 1.6 - Mostly cloudy 10 - - - -
22/05:30am 12.3 NW 6 7 1020.6 - 1.6 - Partly cloudy 10 - - - -
22/05:00am 12.4 SE 1 5 1020.4 - 1.6 - Partly cloudy 10 - - - -
22/04:30am 13.0 S 6 8 1020.3 - 1.6 - Partly cloudy 10 - - - -
22/04:00am 13.5 SSW 9 11 1020.2 - 1.6 - Partly cloudy 10 - - - -
22/03:30am 11.1 ESE 5 6 1020.3 - 1.6 - Partly cloudy 10 - - - -
22/03:00am 13.5 WSW 7 11 1020.3 - 1.6 - Partly cloudy 10 - - - -
22/02:30am 13.0 W 8 9 1020.4 - 1.6 - Partly cloudy 10 - - - -
22/02:00am 13.3 W 8 15 1020.7 - 1.6 - Partly cloudy 10 - - - -
22/01:30am 12.7 W 7 8 1020.6 - 1.4 - Partly cloudy 10 - - - -
22/01:17am 12.9 W 9 14 1020.7 - 1.4 - Partly cloudy 10 - - - -
22/01:00am 13.6 WSW 12 17 1020.7 - 1.2 - Partly cloudy 6 - - - -
22/12:59am 13.6 WSW 12 17 1020.7 - 1.2 - Partly cloudy 6 - - - -
22/12:30am 10.5 N 4 8 1020.7 - 0.2 - Partly cloudy 10 - - - -
22/12:00am 12.8 WSW 5 8 1020.7 - 0.2 - Cloudy 10 - - - -
 
Date/Time
WST
Temp
°C
Wind Pressure Rain since
9am
mm
Weather Cloud Vis
km
Sea
Height
m
Swell
Dir  Spd
kts
Gust
kts
hPa Trend Height
m
Period
s
Dir
21/11:30pm 13.1 W 6 8 1020.7 - 0.2 - Partly cloudy 10 - - - -
21/11:00pm 13.3 W 9 13 1020.8 - 0.2 - Partly cloudy 10 - - - -

Other Formats:

Comma delimited format used in spreadsheet applications
http://www.bom.gov.au/fwo/IDW60701/IDW60701.94403.axf

JavaScript Object Notation format (JSON) in row-major order
http://www.bom.gov.au/fwo/IDW60701/IDW60701.94403.json